createdAt,value
2018-04-24T00:00:25.803Z,2.30
2018-04-24T00:02:53.277Z,2.80
2018-04-24T00:05:20.744Z,2.27
2018-04-24T00:07:48.224Z,2.50
2018-04-24T00:10:15.680Z,2.53
2018-04-24T00:12:43.144Z,2.87
2018-04-24T00:15:10.621Z,2.33
2018-04-24T00:17:38.845Z,2.50
2018-04-24T00:20:06.332Z,2.70
2018-04-24T00:22:33.793Z,2.27
2018-04-24T00:25:02.022Z,2.40
2018-04-24T00:27:29.516Z,2.93
2018-04-24T00:29:57.021Z,3.10
2018-04-24T00:32:24.504Z,3.13
2018-04-24T00:34:51.968Z,2.80
2018-04-24T00:37:19.485Z,2.87
2018-04-24T00:39:47.040Z,3.07
2018-04-24T00:42:14.602Z,3.00
2018-04-24T00:44:42.429Z,2.70
2018-04-24T00:47:10.654Z,3.03
2018-04-24T00:49:38.113Z,3.07
2018-04-24T00:52:05.925Z,3.50
2018-04-24T00:54:34.148Z,3.20
2018-04-24T00:57:01.633Z,3.03
2018-04-24T00:59:29.104Z,3.03
2018-04-24T01:01:57.362Z,3.53
2018-04-24T01:04:24.871Z,3.03
2018-04-24T01:06:52.335Z,3.30
2018-04-24T01:09:19.831Z,3.17
2018-04-24T01:11:47.314Z,3.10
2018-04-24T01:14:15.570Z,3.10
2018-04-24T01:16:43.071Z,3.70
2018-04-24T01:19:10.564Z,3.20
2018-04-24T01:21:38.025Z,3.70
2018-04-24T01:24:05.498Z,3.60
2018-04-24T01:26:32.977Z,3.80
2018-04-24T01:29:01.206Z,3.77
2018-04-24T01:31:28.680Z,3.67
2018-04-24T01:33:56.156Z,3.70
2018-04-24T01:36:24.389Z,3.83
2018-04-24T01:38:51.869Z,3.77
2018-04-24T01:41:19.347Z,4.00
2018-04-24T01:43:47.584Z,4.03
2018-04-24T01:46:15.099Z,4.10
2018-04-24T01:48:42.557Z,4.20
2018-04-24T01:51:10.037Z,4.00
2018-04-24T01:53:37.513Z,4.27
2018-04-24T01:56:06.508Z,4.40
2018-04-24T01:58:35.485Z,3.97
2018-04-24T02:01:02.946Z,4.40
2018-04-24T02:03:30.424Z,3.80
2018-04-24T02:05:58.740Z,4.37
2018-04-24T02:08:26.217Z,4.43
2018-04-24T02:10:53.677Z,4.40
2018-04-24T02:13:21.161Z,4.70
2018-04-24T02:15:48.664Z,4.43
2018-04-24T02:18:16.151Z,3.97
2018-04-24T02:20:43.617Z,4.10
2018-04-24T02:23:11.077Z,4.37
2018-04-24T02:25:38.561Z,3.90
2018-04-24T02:28:06.788Z,4.00
2018-04-24T02:30:34.278Z,3.70
2018-04-24T02:33:01.737Z,4.43
2018-04-24T02:35:29.981Z,4.10
2018-04-24T02:37:57.445Z,3.70
2018-04-24T02:40:24.973Z,4.13
2018-04-24T02:42:52.429Z,4.13
2018-04-24T02:45:19.888Z,3.13
2018-04-24T02:47:47.368Z,3.40
2018-04-24T02:50:14.853Z,3.50
2018-04-24T02:52:43.093Z,3.40
2018-04-24T02:55:10.556Z,3.27
2018-04-24T02:57:38.508Z,3.80
2018-04-24T03:00:05.976Z,3.10
2018-04-24T03:02:33.828Z,3.43
2018-04-24T03:05:01.288Z,3.43
2018-04-24T03:07:28.797Z,2.97
2018-04-24T03:09:56.280Z,3.10
2018-04-24T03:12:23.744Z,3.40
2018-04-24T03:14:51.220Z,3.27
2018-04-24T03:17:18.692Z,2.97
2018-04-24T03:19:46.173Z,2.70
2018-04-24T03:22:14.404Z,2.83
2018-04-24T03:24:41.860Z,2.90
2018-04-24T03:27:09.342Z,2.83
2018-04-24T03:29:37.572Z,3.07
2018-04-24T03:32:05.049Z,2.57
2018-04-24T03:34:32.513Z,2.63
2018-04-24T03:37:00.005Z,2.37
2018-04-24T03:39:28.245Z,2.50
2018-04-24T03:41:55.708Z,2.67
2018-04-24T03:44:23.184Z,2.53
2018-04-24T03:46:51.423Z,2.30
2018-04-24T03:49:18.909Z,2.50
2018-04-24T03:51:47.132Z,2.33
2018-04-24T03:54:14.617Z,2.60
2018-04-24T03:56:42.080Z,2.70
2018-04-24T03:59:09.544Z,2.87
2018-04-24T04:01:37.789Z,2.30
2018-04-24T04:04:05.248Z,2.20
2018-04-24T04:06:32.740Z,2.80
2018-04-24T04:09:00.967Z,2.40
2018-04-24T04:11:28.445Z,2.30
2018-04-24T04:13:55.950Z,2.37
2018-04-24T04:16:23.512Z,2.43
2018-04-24T04:19:02.957Z,2.70
2018-04-24T04:21:42.297Z,2.80
2018-04-24T04:24:21.720Z,2.60
2018-04-24T04:26:49.181Z,2.00
2018-04-24T04:29:16.656Z,2.47
2018-04-24T04:31:45.069Z,2.40
2018-04-24T04:34:13.303Z,2.50
2018-04-24T04:36:40.776Z,2.60
2018-04-24T04:39:08.249Z,2.67
2018-04-24T04:41:35.727Z,2.60
2018-04-24T04:44:03.975Z,2.70
2018-04-24T04:46:31.437Z,2.27
2018-04-24T04:48:58.941Z,2.53
2018-04-24T04:51:26.410Z,2.80
2018-04-24T04:53:53.892Z,2.60
2018-04-24T04:56:21.365Z,3.63
2018-04-24T04:58:48.836Z,3.00
2018-04-24T05:01:17.081Z,2.80
2018-04-24T05:03:44.541Z,2.70
2018-04-24T05:06:12.804Z,2.60
2018-04-24T05:08:40.272Z,2.57
2018-04-24T05:11:07.764Z,3.20
2018-04-24T05:13:35.237Z,2.67
2018-04-24T05:16:02.712Z,2.77
2018-04-24T05:18:30.185Z,3.07
2018-04-24T05:20:57.661Z,2.70
2018-04-24T05:23:25.159Z,2.90
2018-04-24T05:25:52.629Z,2.50
2018-04-24T05:28:20.174Z,3.03
2018-04-24T05:30:47.657Z,3.10
2018-04-24T05:33:15.124Z,2.60
2018-04-24T05:35:42.600Z,2.57
2018-04-24T05:38:10.848Z,2.77
2018-04-24T05:40:38.420Z,2.37
2018-04-24T05:43:05.881Z,2.90
2018-04-24T05:45:33.355Z,2.90
2018-04-24T05:48:00.836Z,2.70
2018-04-24T05:50:28.304Z,3.03
2018-04-24T05:52:55.802Z,2.97
2018-04-24T05:55:23.278Z,3.00
2018-04-24T05:57:51.594Z,2.87
2018-04-24T06:00:19.802Z,2.43
2018-04-24T06:02:47.280Z,2.60
2018-04-24T06:05:15.533Z,2.83
2018-04-24T06:07:42.997Z,2.17
2018-04-24T06:10:10.489Z,2.60
2018-04-24T06:12:37.959Z,2.50
2018-04-24T06:15:05.471Z,2.40
2018-04-24T06:17:32.933Z,2.70
2018-04-24T06:20:01.185Z,3.20
2018-04-24T06:22:28.706Z,2.47
2018-04-24T06:24:56.896Z,2.73
2018-04-24T06:27:24.380Z,2.50
2018-04-24T06:29:51.849Z,3.00
2018-04-24T06:32:20.108Z,2.50
2018-04-24T06:34:47.597Z,2.50
2018-04-24T06:37:15.852Z,2.83
2018-04-24T06:39:44.782Z,2.27
2018-04-24T06:42:12.663Z,2.50
2018-04-24T06:44:40.877Z,2.50
2018-04-24T06:47:08.343Z,2.60
2018-04-24T06:49:36.604Z,2.30
2018-04-24T06:52:04.085Z,3.00
2018-04-24T06:54:31.569Z,3.03
2018-04-24T06:56:59.040Z,2.63
2018-04-24T06:59:26.520Z,2.70
2018-04-24T07:01:53.993Z,2.20
2018-04-24T07:04:22.256Z,2.97
2018-04-24T07:06:49.720Z,2.80
2018-04-24T07:09:17.961Z,2.87
2018-04-24T07:11:45.489Z,3.00
2018-04-24T07:14:12.965Z,2.80
2018-04-24T07:16:40.448Z,2.70
2018-04-24T07:19:07.960Z,2.60
2018-04-24T07:21:35.445Z,2.30
2018-04-24T07:24:02.946Z,2.57
2018-04-24T07:26:31.516Z,2.43
2018-04-24T07:28:59.748Z,2.90
2018-04-24T07:31:27.220Z,2.90
2018-04-24T07:33:54.699Z,3.03
2018-04-24T07:36:22.929Z,2.40
2018-04-24T07:38:50.469Z,3.50
2018-04-24T07:41:17.942Z,2.93
2018-04-24T07:43:45.444Z,2.80
2018-04-24T07:46:13.676Z,3.10
2018-04-24T07:48:41.181Z,3.20
2018-04-24T07:51:09.417Z,3.13
2018-04-24T07:53:36.888Z,3.37
2018-04-24T07:56:04.373Z,3.07
2018-04-24T07:58:32.607Z,3.13
2018-04-24T08:01:00.108Z,3.47
2018-04-24T08:03:28.343Z,3.10
2018-04-24T08:05:55.833Z,3.20
2018-04-24T08:08:24.073Z,3.33
2018-04-24T08:10:51.537Z,3.40
2018-04-24T08:13:19.024Z,3.40
2018-04-24T08:15:47.253Z,4.00
2018-04-24T08:18:14.746Z,3.10
2018-04-24T08:20:42.977Z,3.17
2018-04-24T08:23:10.477Z,3.63
2018-04-24T08:25:37.959Z,3.60
2018-04-24T08:28:05.425Z,3.70
2018-04-24T08:30:32.905Z,3.57
2018-04-24T08:33:00.382Z,3.73
2018-04-24T08:35:27.861Z,3.47
2018-04-24T08:37:56.109Z,3.40
2018-04-24T08:40:23.614Z,3.53
2018-04-24T08:42:51.078Z,3.80
2018-04-24T08:45:18.549Z,3.80
2018-04-24T08:47:46.104Z,4.57
2018-04-24T08:50:14.277Z,3.97
2018-04-24T08:52:41.761Z,3.37
2018-04-24T08:55:09.228Z,4.47
2018-04-24T08:57:36.713Z,3.90
2018-04-24T09:00:04.179Z,4.17
2018-04-24T09:02:31.642Z,4.17
2018-04-24T09:04:59.125Z,3.90
2018-04-24T09:07:26.594Z,3.97
2018-04-24T09:09:54.844Z,4.30
2018-04-24T09:12:22.312Z,4.27
2018-04-24T09:14:49.793Z,4.30
2018-04-24T09:17:17.278Z,3.77
2018-04-24T09:19:44.781Z,3.40
2018-04-24T09:22:12.248Z,4.47
2018-04-24T09:24:39.717Z,4.20
2018-04-24T09:27:07.256Z,4.37
2018-04-24T09:29:34.689Z,4.93
2018-04-24T09:32:02.182Z,4.00
2018-04-24T09:34:29.670Z,3.63
2018-04-24T09:36:57.149Z,4.37
2018-04-24T09:39:24.623Z,4.10
2018-04-24T09:41:52.129Z,4.50
2018-04-24T09:44:20.374Z,5.10
2018-04-24T09:46:47.837Z,4.33
2018-04-24T09:49:15.317Z,4.47
2018-04-24T09:51:42.796Z,4.40
2018-04-24T09:54:10.289Z,3.97
2018-04-24T09:56:37.749Z,4.33
2018-04-24T09:59:05.248Z,4.10
2018-04-24T10:01:33.473Z,4.50
2018-04-24T10:04:00.960Z,4.30
2018-04-24T10:06:29.200Z,3.93
2018-04-24T10:08:56.668Z,4.23
2018-04-24T10:11:24.152Z,4.10
2018-04-24T10:13:52.386Z,3.93
2018-04-24T10:16:19.864Z,3.80
2018-04-24T10:18:47.329Z,3.63
2018-04-24T10:21:14.812Z,4.17
2018-04-24T10:23:42.381Z,4.37
2018-04-24T10:26:10.305Z,3.67
2018-04-24T10:28:39.288Z,3.67
2018-04-24T10:31:06.754Z,4.57
2018-04-24T10:33:34.241Z,4.07
2018-04-24T10:36:01.705Z,4.27
2018-04-24T10:38:29.185Z,4.10
2018-04-24T10:40:56.657Z,4.17
2018-04-24T10:43:24.140Z,3.60
2018-04-24T10:45:52.372Z,3.87
2018-04-24T10:48:19.869Z,3.80
2018-04-24T10:50:48.106Z,3.83
2018-04-24T10:53:15.580Z,4.90
2018-04-24T10:55:43.878Z,4.17
2018-04-24T10:58:11.318Z,3.80
2018-04-24T11:00:38.822Z,3.77
2018-04-24T11:03:06.293Z,4.00
2018-04-24T11:05:33.773Z,3.67
2018-04-24T11:08:01.241Z,4.10
2018-04-24T11:10:28.877Z,4.00
2018-04-24T11:12:56.341Z,3.30
2018-04-24T11:15:23.805Z,3.80
2018-04-24T11:17:51.291Z,4.13
2018-04-24T11:20:19.531Z,3.80
2018-04-24T11:22:47.092Z,3.60
2018-04-24T11:25:14.508Z,3.50
2018-04-24T11:27:41.993Z,3.47
2018-04-24T11:30:09.464Z,3.67
2018-04-24T11:32:36.949Z,3.63
2018-04-24T11:35:05.188Z,3.60
2018-04-24T11:37:32.657Z,3.20
2018-04-24T11:40:00.914Z,3.83
2018-04-24T11:42:28.385Z,3.73
2018-04-24T11:44:55.873Z,3.00
2018-04-24T11:47:23.337Z,3.17
2018-04-24T11:49:50.825Z,3.20
2018-04-24T11:52:18.297Z,3.43
2018-04-24T11:54:45.772Z,3.13
2018-04-24T11:57:13.354Z,3.10
2018-04-24T11:59:40.772Z,2.60
2018-04-24T12:02:08.263Z,2.97
2018-04-24T12:04:36.530Z,3.00
2018-04-24T12:07:05.060Z,2.80
2018-04-24T12:09:32.524Z,2.83
2018-04-24T12:11:59.997Z,2.40
2018-04-24T12:14:27.480Z,2.70
2018-04-24T12:16:55.781Z,2.60
2018-04-24T12:19:23.265Z,2.60
2018-04-24T12:21:50.749Z,2.67
2018-04-24T12:24:18.585Z,2.70
2018-04-24T12:26:46.768Z,2.93
2018-04-24T12:29:14.233Z,2.63
2018-04-24T12:31:41.713Z,2.63
2018-04-24T12:34:09.945Z,2.73
2018-04-24T12:36:37.434Z,2.40
2018-04-24T12:39:05.690Z,3.10
2018-04-24T12:41:33.185Z,2.70
2018-04-24T12:44:01.418Z,2.80
2018-04-24T12:46:28.934Z,2.93
2018-04-24T12:48:56.406Z,2.73
2018-04-24T12:51:23.949Z,2.83
2018-04-24T12:53:51.428Z,2.20
2018-04-24T12:56:18.892Z,2.20
2018-04-24T12:58:46.402Z,3.13
2018-04-24T13:01:13.869Z,2.40
2018-04-24T13:03:41.365Z,2.50
2018-04-24T13:06:08.837Z,2.40
2018-04-24T13:08:36.318Z,2.50
2018-04-24T13:11:04.549Z,2.40
2018-04-24T13:13:32.036Z,2.00
2018-04-24T13:16:00.276Z,2.20
2018-04-24T13:18:27.755Z,2.30
2018-04-24T13:20:55.263Z,2.50
2018-04-24T13:23:22.736Z,2.80
2018-04-24T13:25:50.299Z,2.67
2018-04-24T13:28:18.470Z,2.47
2018-04-24T13:30:45.969Z,2.67
2018-04-24T13:33:14.208Z,2.63
2018-04-24T13:35:41.693Z,2.60
2018-04-24T13:38:09.164Z,2.53
2018-04-24T13:40:37.424Z,3.03
2018-04-24T13:43:05.814Z,2.90
2018-04-24T13:45:33.221Z,3.07
2018-04-24T13:48:00.752Z,3.00
2018-04-24T13:50:28.213Z,3.07
2018-04-24T13:52:55.697Z,3.40
2018-04-24T13:55:23.247Z,3.00
2018-04-24T13:57:50.737Z,2.97
2018-04-24T14:00:18.210Z,3.10
2018-04-24T14:02:46.445Z,2.87
2018-04-24T14:05:13.926Z,2.77
2018-04-24T14:07:41.388Z,2.67
2018-04-24T14:10:09.673Z,2.40
2018-04-24T14:12:37.916Z,2.80
2018-04-24T14:15:06.901Z,2.70
2018-04-24T14:17:34.374Z,2.63
2018-04-24T14:20:01.863Z,2.70
2018-04-24T14:22:29.349Z,2.97
2018-04-24T14:24:56.808Z,2.47
2018-04-24T14:27:24.341Z,2.93
2018-04-24T14:29:51.804Z,2.73
2018-04-24T14:32:19.288Z,3.60
2018-04-24T14:34:46.760Z,2.93
2018-04-24T14:37:15.777Z,2.63
2018-04-24T14:39:44.013Z,2.73
2018-04-24T14:42:11.492Z,2.60
2018-04-24T14:44:38.965Z,3.17
2018-04-24T14:47:07.224Z,2.80
2018-04-24T14:49:34.685Z,3.20
2018-04-24T14:52:02.916Z,3.90
2018-04-24T14:54:30.405Z,4.07
2018-04-24T14:56:58.648Z,4.60
2018-04-24T14:59:26.129Z,5.10
2018-04-24T15:01:53.597Z,4.80
2018-04-24T15:04:21.850Z,4.63
2018-04-24T15:06:49.325Z,4.87
2018-04-24T15:09:17.573Z,4.50
2018-04-24T15:11:45.053Z,4.80
2018-04-24T15:14:12.541Z,4.87
2018-04-24T15:16:40.029Z,4.80
2018-04-24T15:19:07.564Z,5.63
2018-04-24T15:21:35.077Z,6.80
2018-04-24T15:24:02.542Z,6.53
2018-04-24T15:26:30.822Z,5.63
2018-04-24T15:28:59.057Z,6.13
2018-04-24T15:31:26.532Z,5.87
2018-04-24T15:33:54.817Z,6.47
2018-04-24T15:36:24.034Z,6.77
2018-04-24T15:38:52.257Z,6.83
2018-04-24T15:41:19.721Z,6.13
2018-04-24T15:43:47.206Z,6.20
2018-04-24T15:46:15.456Z,6.90
2018-04-24T15:48:42.940Z,6.60
2018-04-24T15:51:11.168Z,6.63
2018-04-24T15:53:38.657Z,6.93
2018-04-24T15:56:06.157Z,6.17
2018-04-24T15:58:33.640Z,5.73
2018-04-24T16:01:01.142Z,6.37
2018-04-24T16:03:29.368Z,6.33
2018-04-24T16:05:56.856Z,6.57
2018-04-24T16:08:24.328Z,6.43
2018-04-24T16:10:52.584Z,5.50
2018-04-24T16:13:20.057Z,6.20
2018-04-24T16:15:48.308Z,6.33
2018-04-24T16:18:15.786Z,6.13
2018-04-24T16:20:44.040Z,6.60
2018-04-24T16:23:11.509Z,6.03
2018-04-24T16:25:39.779Z,6.00
2018-04-24T16:28:07.240Z,6.10
2018-04-24T16:30:35.541Z,6.27
2018-04-24T16:33:03.043Z,6.10
2018-04-24T16:35:30.516Z,6.67
2018-04-24T16:37:58.764Z,6.23
2018-04-24T16:40:26.236Z,6.43
2018-04-24T16:42:53.718Z,6.27
2018-04-24T16:45:21.189Z,6.63
2018-04-24T16:47:48.669Z,6.33
2018-04-24T16:50:16.148Z,6.97
2018-04-24T16:52:43.661Z,6.63
2018-04-24T16:55:11.129Z,6.40
2018-04-24T16:57:38.616Z,5.97
2018-04-24T17:00:06.085Z,6.17
2018-04-24T17:02:33.553Z,6.53
2018-04-24T17:05:01.049Z,6.63
2018-04-24T17:07:28.611Z,6.07
2018-04-24T17:09:56.092Z,6.63
2018-04-24T17:12:23.637Z,6.70
2018-04-24T17:14:51.061Z,6.30
2018-04-24T17:17:18.533Z,6.33
2018-04-24T17:19:46.028Z,6.20
2018-04-24T17:22:13.497Z,6.60
2018-04-24T17:24:40.982Z,6.80
2018-04-24T17:27:09.216Z,6.27
2018-04-24T17:29:36.688Z,6.70
2018-04-24T17:32:04.168Z,6.73
2018-04-24T17:34:32.397Z,6.37
2018-04-24T17:36:59.884Z,6.30
2018-04-24T17:39:28.134Z,6.87
2018-04-24T17:41:55.651Z,6.70
2018-04-24T17:44:23.116Z,5.77
2018-04-24T17:46:50.610Z,6.30
2018-04-24T17:49:18.073Z,6.00
2018-04-24T17:51:45.549Z,6.70
2018-04-24T17:54:13.801Z,6.13
2018-04-24T17:56:42.049Z,6.30
2018-04-24T17:59:09.573Z,6.33
2018-04-24T18:01:37.041Z,5.90
2018-04-24T18:04:04.625Z,6.33
2018-04-24T18:06:32.788Z,5.80
2018-04-24T18:09:00.294Z,6.70
2018-04-24T18:11:28.558Z,6.80
2018-04-24T18:13:56.016Z,6.30
2018-04-24T18:16:23.502Z,6.47
2018-04-24T18:18:50.967Z,6.83
2018-04-24T18:21:18.449Z,6.60
2018-04-24T18:23:45.917Z,6.63
2018-04-24T18:26:13.402Z,5.90
2018-04-24T18:28:41.652Z,6.27
2018-04-24T18:31:09.149Z,6.47
2018-04-24T18:33:36.662Z,6.23
2018-04-24T18:36:04.969Z,6.90
2018-04-24T18:38:32.417Z,6.43
2018-04-24T18:40:59.901Z,6.80
2018-04-24T18:43:27.394Z,6.00
2018-04-24T18:45:54.861Z,6.70
2018-04-24T18:48:22.345Z,6.20
2018-04-24T18:50:49.848Z,9.00
2018-04-24T18:53:17.354Z,6.67
2018-04-24T18:55:44.837Z,11.27
2018-04-24T18:58:12.316Z,7.93
2018-04-24T19:00:39.809Z,7.53
2018-04-24T19:03:09.161Z,7.50
2018-04-24T19:05:36.639Z,8.23
2018-04-24T19:08:04.149Z,7.93
2018-04-24T19:10:31.636Z,7.30
2018-04-24T19:12:59.113Z,8.10
2018-04-24T19:15:26.606Z,9.07
2018-04-24T19:17:54.098Z,8.23
2018-04-24T19:20:21.597Z,8.50
2018-04-24T19:22:49.078Z,7.57
2018-04-24T19:25:23.036Z,7.53
2018-04-24T19:27:50.521Z,7.87
2018-04-24T19:30:18.033Z,7.47
2018-04-24T19:32:45.517Z,7.87
2018-04-24T19:35:13.019Z,9.30
2018-04-24T19:37:40.502Z,8.53
2018-04-24T19:40:13.651Z,8.90
2018-04-24T19:42:41.131Z,8.00
2018-04-24T19:45:08.626Z,11.23
2018-04-24T19:47:36.100Z,18.50
2018-04-24T19:50:09.401Z,8.80
2018-04-24T19:52:37.637Z,7.37
2018-04-24T19:55:10.751Z,7.47
2018-04-24T19:57:38.216Z,7.27
2018-04-24T20:00:05.694Z,10.57
2018-04-24T20:02:33.961Z,11.80
2018-04-24T20:05:01.425Z,6.17
2018-04-24T20:07:29.677Z,5.37
2018-04-24T20:09:57.151Z,6.33
2018-04-24T20:12:25.401Z,5.30
2018-04-24T20:14:52.871Z,4.97
2018-04-24T20:17:20.359Z,5.60
2018-04-24T20:19:47.829Z,5.00
2018-04-24T20:22:15.329Z,4.53
2018-04-24T20:24:42.804Z,5.50
2018-04-24T20:27:10.264Z,5.03
2018-04-24T20:29:38.523Z,5.43
2018-04-24T20:32:06.748Z,5.43
2018-04-24T20:34:34.244Z,6.17
2018-04-24T20:37:01.705Z,6.10
2018-04-24T20:39:29.193Z,4.20
2018-04-24T20:41:57.420Z,5.10
2018-04-24T20:44:24.917Z,6.00
2018-04-24T20:46:52.381Z,6.33
2018-04-24T20:49:19.849Z,11.20
2018-04-24T20:51:47.333Z,8.70
2018-04-24T20:54:14.800Z,6.17
2018-04-24T20:56:42.280Z,7.93
2018-04-24T20:59:09.753Z,5.83
2018-04-24T21:01:37.997Z,8.47
2018-04-24T21:04:05.847Z,4.87
2018-04-24T21:06:33.337Z,4.87
2018-04-24T21:09:01.569Z,4.93
2018-04-24T21:11:29.034Z,4.83
2018-04-24T21:13:56.525Z,5.60
2018-04-24T21:16:24.754Z,5.57
2018-04-24T21:18:52.235Z,5.33
2018-04-24T21:21:19.704Z,5.30
2018-04-24T21:23:47.189Z,4.80
2018-04-24T21:26:14.662Z,5.00
2018-04-24T21:28:42.150Z,5.30
2018-04-24T21:31:09.621Z,4.97
2018-04-24T21:33:37.083Z,4.13
2018-04-24T21:36:04.565Z,4.37
2018-04-24T21:38:32.029Z,4.93
2018-04-24T21:40:59.528Z,4.17
2018-04-24T21:43:26.993Z,4.20
2018-04-24T21:45:54.475Z,4.47
2018-04-24T21:48:22.709Z,4.20
2018-04-24T21:50:50.188Z,4.07
2018-04-24T21:53:17.652Z,3.70
2018-04-24T21:55:45.142Z,4.20
2018-04-24T21:58:12.613Z,3.83
2018-04-24T22:00:40.083Z,3.77
2018-04-24T22:03:07.577Z,3.80
2018-04-24T22:05:35.040Z,3.93
2018-04-24T22:08:02.520Z,3.77
2018-04-24T22:10:29.997Z,4.60
2018-04-24T22:12:57.477Z,4.43
2018-04-24T22:15:24.945Z,4.37
2018-04-24T22:17:52.436Z,4.83
2018-04-24T22:20:19.909Z,4.50
2018-04-24T22:22:47.376Z,4.43
2018-04-24T22:25:14.869Z,4.03
2018-04-24T22:27:42.336Z,3.70
2018-04-24T22:30:09.816Z,4.03
2018-04-24T22:32:37.309Z,3.87
2018-04-24T22:35:04.793Z,3.90
2018-04-24T22:37:32.261Z,3.90
2018-04-24T22:39:59.741Z,3.90
2018-04-24T22:42:27.209Z,4.17
2018-04-24T22:44:54.701Z,3.93
2018-04-24T22:47:22.164Z,3.80
2018-04-24T22:49:49.649Z,3.90
2018-04-24T22:52:17.949Z,3.80
2018-04-24T22:54:45.689Z,4.10
2018-04-24T22:57:13.152Z,3.87
2018-04-24T22:59:40.631Z,3.80
2018-04-24T23:02:08.115Z,3.67
2018-04-24T23:04:35.588Z,3.77
2018-04-24T23:07:03.069Z,4.17
2018-04-24T23:09:31.375Z,4.00
2018-04-24T23:12:10.797Z,3.70
2018-04-24T23:14:50.249Z,3.40
2018-04-24T23:17:29.603Z,3.80
2018-04-24T23:20:09.069Z,3.70
2018-04-24T23:22:36.537Z,3.57
2018-04-24T23:25:04.789Z,4.13
2018-04-24T23:27:32.265Z,4.10
2018-04-24T23:29:59.738Z,4.00
2018-04-24T23:32:27.220Z,4.10
2018-04-24T23:34:54.680Z,3.83
2018-04-24T23:37:22.232Z,3.77
2018-04-24T23:39:49.697Z,3.83
2018-04-24T23:42:17.180Z,4.17
2018-04-24T23:44:44.664Z,3.73
2018-04-24T23:47:12.259Z,3.80
2018-04-24T23:49:39.749Z,3.83
2018-04-24T23:52:07.236Z,3.90
2018-04-24T23:54:35.483Z,3.70
2018-04-24T23:57:02.980Z,3.70
2018-04-24T23:59:31.293Z,3.60
